createdAt,value
2023-11-18T00:02:00.399Z,102137.16
2023-11-18T00:04:26.784Z,102136.00
2023-11-18T00:06:55.514Z,102133.56
2023-11-18T00:09:21.948Z,102128.94
2023-11-18T00:11:48.341Z,102134.03
2023-11-18T00:14:14.815Z,102125.16
2023-11-18T00:16:41.348Z,102119.75
2023-11-18T00:19:10.207Z,102111.97
2023-11-18T00:21:37.317Z,102110.66
2023-11-18T00:24:04.000Z,102111.25
2023-11-18T00:26:30.429Z,102111.00
2023-11-18T00:28:56.810Z,102104.78
2023-11-18T00:31:23.244Z,102109.19
2023-11-18T00:33:49.662Z,102106.09
2023-11-18T00:36:16.180Z,102098.53
2023-11-18T00:38:42.814Z,102099.94
2023-11-18T00:41:09.164Z,102106.03
2023-11-18T00:43:35.865Z,102108.59
2023-11-18T00:46:04.308Z,102100.78
2023-11-18T00:48:31.361Z,102118.78
2023-11-18T00:50:57.721Z,102111.16
2023-11-18T00:53:24.305Z,102118.19
2023-11-18T00:55:50.752Z,102108.50
2023-11-18T00:58:17.104Z,102115.69
2023-11-18T01:00:43.479Z,102123.38
2023-11-18T01:03:11.436Z,102115.16
2023-11-18T01:05:38.387Z,102127.94
2023-11-18T01:08:06.303Z,102118.66
2023-11-18T01:10:32.806Z,102123.16
2023-11-18T01:12:59.255Z,102119.47
2023-11-18T01:15:25.616Z,102116.50
2023-11-18T01:17:54.078Z,102117.53
2023-11-18T01:20:24.164Z,102130.53
2023-11-18T01:22:50.816Z,102127.66
2023-11-18T01:25:18.688Z,102127.00
2023-11-18T01:27:48.866Z,102125.06
2023-11-18T01:30:16.133Z,102126.50
2023-11-18T01:32:42.763Z,102136.19
2023-11-18T01:35:11.806Z,102140.78
2023-11-18T01:37:38.194Z,102130.25
2023-11-18T01:40:06.406Z,102134.47
2023-11-18T01:42:32.742Z,102131.34
2023-11-18T01:45:00.620Z,102132.38
2023-11-18T01:47:27.593Z,102139.03
2023-11-18T01:49:54.344Z,102135.88
2023-11-18T01:52:22.869Z,102130.94
2023-11-18T01:54:49.849Z,102137.75
2023-11-18T01:57:17.147Z,102138.59
2023-11-18T01:59:44.302Z,102129.13
2023-11-18T02:02:10.797Z,102140.16
2023-11-18T02:04:37.879Z,102136.50
2023-11-18T02:07:09.844Z,102135.25
2023-11-18T02:09:36.772Z,102135.91
2023-11-18T02:12:13.219Z,102140.78
2023-11-18T02:14:40.854Z,102154.56
2023-11-18T02:17:10.504Z,102151.44
2023-11-18T02:19:37.491Z,102148.00
2023-11-18T02:22:04.240Z,102155.81
2023-11-18T02:24:34.231Z,102160.50
2023-11-18T02:27:01.700Z,102158.31
2023-11-18T02:29:31.816Z,102145.53
2023-11-18T02:32:09.988Z,102148.22
2023-11-18T02:34:37.139Z,102152.56
2023-11-18T02:37:05.005Z,102155.91
2023-11-18T02:39:41.914Z,102152.66
2023-11-18T02:42:11.796Z,102160.56
2023-11-18T02:44:38.845Z,102163.50
2023-11-18T02:47:08.612Z,102162.50
2023-11-18T02:49:36.305Z,102167.84
2023-11-18T02:52:03.669Z,102170.44
2023-11-18T02:54:30.209Z,102176.66
2023-11-18T02:56:56.573Z,102180.75
2023-11-18T02:59:23.205Z,102183.28
2023-11-18T03:01:49.802Z,102172.53
2023-11-18T03:04:17.022Z,102179.16
2023-11-18T03:06:43.373Z,102168.25
2023-11-18T03:09:11.576Z,102182.63
2023-11-18T03:11:38.768Z,102188.94
2023-11-18T03:14:06.030Z,102184.59
2023-11-18T03:16:32.619Z,102182.44
2023-11-18T03:19:00.012Z,102177.69
2023-11-18T03:21:27.577Z,102176.25
2023-11-18T03:23:54.495Z,102174.91
2023-11-18T03:26:21.000Z,102182.28
2023-11-18T03:28:47.545Z,102175.72
2023-11-18T03:31:15.139Z,102170.88
2023-11-18T03:33:41.517Z,102161.97
2023-11-18T03:36:09.561Z,102169.72
2023-11-18T03:38:35.973Z,102162.84
2023-11-18T03:41:02.767Z,102167.16
2023-11-18T03:43:29.793Z,102159.53
2023-11-18T03:45:57.780Z,102170.50
2023-11-18T03:48:24.723Z,102176.50
2023-11-18T03:50:51.563Z,102172.06
2023-11-18T03:53:18.040Z,102169.25
2023-11-18T03:55:44.423Z,102172.63
2023-11-18T03:58:10.790Z,102178.94
2023-11-18T04:00:37.176Z,102188.06
2023-11-18T04:03:04.578Z,102185.16
2023-11-18T04:05:32.652Z,102195.28
2023-11-18T04:08:00.031Z,102185.53
2023-11-18T04:10:28.166Z,102197.81
2023-11-18T04:12:54.876Z,102196.66
2023-11-18T04:15:21.224Z,102190.78
2023-11-18T04:17:47.672Z,102185.22
2023-11-18T04:20:14.162Z,102177.38
2023-11-18T04:22:44.192Z,102178.28
2023-11-18T04:25:11.844Z,102179.41
2023-11-18T04:27:45.074Z,102175.78
2023-11-18T04:30:14.040Z,102176.47
2023-11-18T04:32:42.839Z,102175.00
2023-11-18T04:35:11.286Z,102171.13
2023-11-18T04:37:37.796Z,102171.41
2023-11-18T04:40:04.992Z,102177.00
2023-11-18T04:42:31.429Z,102174.84
2023-11-18T04:44:58.798Z,102174.13
2023-11-18T04:47:26.468Z,102164.91
2023-11-18T04:49:53.252Z,102166.97
2023-11-18T04:52:19.929Z,102167.16
2023-11-18T04:54:49.037Z,102163.53
2023-11-18T04:57:15.853Z,102165.34
2023-11-18T04:59:45.229Z,102169.41
2023-11-18T05:02:11.779Z,102167.66
2023-11-18T05:04:38.402Z,102171.13
2023-11-18T05:07:05.429Z,102174.13
2023-11-18T05:09:32.282Z,102170.38
2023-11-18T05:11:59.681Z,102162.09
2023-11-18T05:14:27.306Z,102162.09
2023-11-18T05:16:53.711Z,102158.56
2023-11-18T05:19:20.073Z,102153.38
2023-11-18T05:21:50.353Z,102154.59
2023-11-18T05:24:16.819Z,102144.25
2023-11-18T05:26:43.231Z,102150.63
2023-11-18T05:29:09.706Z,102144.88
2023-11-18T05:31:36.637Z,102136.94
2023-11-18T05:34:04.313Z,102141.88
2023-11-18T05:36:37.984Z,102140.78
2023-11-18T05:39:06.021Z,102132.31
2023-11-18T05:41:33.102Z,102132.78
2023-11-18T05:43:59.622Z,102130.25
2023-11-18T05:46:29.129Z,102118.78
2023-11-18T05:48:55.715Z,102110.84
2023-11-18T05:51:26.691Z,102108.31
2023-11-18T05:53:53.800Z,102117.16
2023-11-18T05:56:22.171Z,102113.94
2023-11-18T05:58:48.578Z,102113.69
2023-11-18T06:01:15.334Z,102107.38
2023-11-18T06:03:43.315Z,102100.78
2023-11-18T06:06:11.388Z,102103.31
2023-11-18T06:08:42.147Z,102098.34
2023-11-18T06:11:15.830Z,102100.84
2023-11-18T06:13:52.649Z,102105.38
2023-11-18T06:16:23.674Z,102105.56
2023-11-18T06:18:52.104Z,102109.28
2023-11-18T06:21:25.400Z,102110.50
2023-11-18T06:23:52.146Z,102111.50
2023-11-18T06:26:21.493Z,102122.19
2023-11-18T06:28:50.353Z,102124.16
2023-11-18T06:31:16.821Z,102119.22
2023-11-18T06:33:44.785Z,102120.25
2023-11-18T06:36:14.652Z,102116.63
2023-11-18T06:38:41.564Z,102124.19
2023-11-18T06:41:13.344Z,102129.28
2023-11-18T06:43:53.079Z,102133.78
2023-11-18T06:46:35.004Z,102123.78
2023-11-18T06:49:07.523Z,102127.44
2023-11-18T06:51:39.324Z,102137.91
2023-11-18T06:54:10.472Z,102132.44
2023-11-18T06:56:38.840Z,102128.00
2023-11-18T06:59:08.427Z,102132.25
2023-11-18T07:01:36.714Z,102128.03
2023-11-18T07:04:03.661Z,102136.38
2023-11-18T07:06:30.075Z,102138.56
2023-11-18T07:09:01.172Z,102136.09
2023-11-18T07:11:27.557Z,102142.25
2023-11-18T07:14:00.363Z,102147.72
2023-11-18T07:16:27.157Z,102158.88
2023-11-18T07:18:53.747Z,102163.94
2023-11-18T07:21:20.932Z,102174.06
2023-11-18T07:23:47.354Z,102180.44
2023-11-18T07:26:15.031Z,102180.41
2023-11-18T07:28:42.048Z,102175.91
2023-11-18T07:31:09.145Z,102186.09
2023-11-18T07:33:35.668Z,102176.88
2023-11-18T07:36:04.000Z,102173.63
2023-11-18T07:38:32.080Z,102176.16
2023-11-18T07:40:58.609Z,102181.28
2023-11-18T07:43:25.103Z,102191.00
2023-11-18T07:45:53.576Z,102182.53
2023-11-18T07:48:21.693Z,102180.13
2023-11-18T07:50:48.422Z,102174.69
2023-11-18T07:53:15.061Z,102178.44
2023-11-18T07:55:41.520Z,102171.84
2023-11-18T07:58:12.096Z,102173.22
2023-11-18T08:00:43.533Z,102168.03
2023-11-18T08:03:14.198Z,102151.66
2023-11-18T08:05:42.001Z,102150.25
2023-11-18T08:08:08.701Z,102156.22
2023-11-18T08:10:38.838Z,102153.88
2023-11-18T08:13:07.796Z,102159.53
2023-11-18T08:15:43.659Z,102175.75
2023-11-18T08:18:13.105Z,102173.09
2023-11-18T08:20:39.924Z,102181.53
2023-11-18T08:23:06.357Z,102176.44
2023-11-18T08:25:34.864Z,102179.25
2023-11-18T08:28:04.836Z,102181.97
2023-11-18T08:30:31.408Z,102174.88
2023-11-18T08:32:59.184Z,102171.84
2023-11-18T08:35:26.362Z,102167.19
2023-11-18T08:37:53.493Z,102169.16
2023-11-18T08:40:23.091Z,102162.63
2023-11-18T08:42:51.979Z,102162.28
2023-11-18T08:45:29.019Z,102155.75
2023-11-18T08:47:56.348Z,102148.41
2023-11-18T08:50:25.249Z,102153.91
2023-11-18T08:52:58.739Z,102137.00
2023-11-18T08:55:40.485Z,102127.88
2023-11-18T08:58:21.571Z,102125.97
2023-11-18T09:00:49.715Z,102121.59
2023-11-18T09:03:28.608Z,102128.09
2023-11-18T09:05:59.743Z,102137.47
2023-11-18T09:08:33.709Z,102146.47
2023-11-18T09:11:01.013Z,102138.50
2023-11-18T09:13:30.768Z,102148.84
2023-11-18T09:15:58.277Z,102152.47
2023-11-18T09:18:26.343Z,102149.00
2023-11-18T09:20:53.711Z,102152.69
2023-11-18T09:23:20.378Z,102149.31
2023-11-18T09:25:48.004Z,102141.91
2023-11-18T09:28:15.922Z,102140.88
2023-11-18T09:30:58.391Z,102141.34
2023-11-18T09:33:35.608Z,102132.19
2023-11-18T09:36:13.186Z,102128.03
2023-11-18T09:38:41.627Z,102123.84
2023-11-18T09:41:14.505Z,102114.25
2023-11-18T09:43:49.311Z,102109.81
2023-11-18T09:46:19.455Z,102122.06
2023-11-18T09:49:03.013Z,102111.88
2023-11-18T09:51:36.534Z,102122.59
2023-11-18T09:54:11.273Z,102108.50
2023-11-18T09:57:09.499Z,102101.31
2023-11-18T09:59:59.784Z,102104.66
2023-11-18T10:02:27.049Z,102104.00
2023-11-18T10:04:58.520Z,102092.78
2023-11-18T10:07:28.065Z,102096.28
2023-11-18T10:09:58.495Z,102094.94
2023-11-18T10:12:27.815Z,102099.44
2023-11-18T10:14:54.313Z,102100.16
2023-11-18T10:17:23.162Z,102101.41
2023-11-18T10:19:58.144Z,102086.72
2023-11-18T10:22:27.175Z,102087.88
2023-11-18T10:24:55.622Z,102082.25
2023-11-18T10:27:29.259Z,102074.88
2023-11-18T10:30:03.158Z,102071.69
2023-11-18T10:32:30.066Z,102070.59
2023-11-18T10:34:57.721Z,102059.63
2023-11-18T10:37:25.064Z,102065.81
2023-11-18T10:39:58.271Z,102074.66
2023-11-18T10:42:31.537Z,102071.25
2023-11-18T10:44:59.128Z,102058.59
2023-11-18T10:47:27.318Z,102062.53
2023-11-18T10:49:54.821Z,102055.22
2023-11-18T10:52:21.272Z,102040.88
2023-11-18T10:54:57.340Z,102019.50
2023-11-18T10:57:25.059Z,102017.53
2023-11-18T11:00:14.039Z,102023.81
2023-11-18T11:02:42.567Z,102021.56
2023-11-18T11:05:19.849Z,102015.56
2023-11-18T11:07:49.925Z,102016.56
2023-11-18T11:10:16.500Z,102003.94
2023-11-18T11:12:54.966Z,102000.38
2023-11-18T11:15:24.479Z,102007.03
2023-11-18T11:17:56.670Z,101989.69
2023-11-18T11:20:31.005Z,101987.38
2023-11-18T11:23:09.595Z,101992.69
2023-11-18T11:25:45.225Z,101981.00
2023-11-18T11:28:16.665Z,101959.81
2023-11-18T11:31:00.573Z,101960.88
2023-11-18T11:33:41.352Z,101964.25
2023-11-18T11:36:13.728Z,101951.91
2023-11-18T11:38:40.666Z,101956.53
2023-11-18T11:41:09.078Z,101956.81
2023-11-18T11:43:36.010Z,101951.91
2023-11-18T11:46:11.225Z,101949.94
2023-11-18T11:48:39.443Z,101947.94
2023-11-18T11:51:31.180Z,101944.34
2023-11-18T11:54:16.602Z,101951.63
2023-11-18T11:56:44.957Z,101947.91
2023-11-18T11:59:16.971Z,101942.47
2023-11-18T12:01:48.397Z,101939.84
2023-11-18T12:04:29.194Z,101935.03
2023-11-18T12:07:05.793Z,101932.97
2023-11-18T12:09:39.509Z,101931.31
2023-11-18T12:12:20.162Z,101936.63
2023-11-18T12:14:51.842Z,101932.94
2023-11-18T12:17:25.430Z,101934.28
2023-11-18T12:19:59.555Z,101934.00
2023-11-18T12:22:31.805Z,101920.56
2023-11-18T12:25:07.299Z,101920.81
2023-11-18T12:27:53.414Z,101923.25
2023-11-18T12:30:19.943Z,101930.44
2023-11-18T12:33:19.265Z,101932.75
2023-11-18T12:35:52.123Z,101930.13
2023-11-18T12:38:29.778Z,101920.63
2023-11-18T12:40:57.706Z,101925.25
2023-11-18T12:43:49.861Z,101926.78
2023-11-18T12:46:43.594Z,101912.38
2023-11-18T12:49:16.198Z,101920.91
2023-11-18T12:51:44.839Z,101913.53
2023-11-18T12:54:13.083Z,101907.63
2023-11-18T12:56:40.379Z,101906.50
2023-11-18T12:59:07.446Z,101926.28
2023-11-18T13:01:37.441Z,101916.78
2023-11-18T13:04:04.543Z,101916.28
2023-11-18T13:06:31.190Z,101924.06
2023-11-18T13:08:59.123Z,101909.66
2023-11-18T13:11:25.933Z,101911.09
2023-11-18T13:13:52.888Z,101902.03
2023-11-18T13:16:19.801Z,101901.94
2023-11-18T13:18:50.548Z,101907.13
2023-11-18T13:21:17.811Z,101907.91
2023-11-18T13:23:49.266Z,101900.25
2023-11-18T13:26:16.551Z,101884.19
2023-11-18T13:28:44.676Z,101883.84
2023-11-18T13:31:11.750Z,101881.88
2023-11-18T13:33:39.802Z,101880.03
2023-11-18T13:36:07.572Z,101879.69
2023-11-18T13:38:34.078Z,101869.09
2023-11-18T13:41:04.492Z,101864.41
2023-11-18T13:43:59.685Z,101853.03
2023-11-18T13:46:26.881Z,101853.63
2023-11-18T13:48:53.298Z,101841.91
2023-11-18T13:51:21.038Z,101830.50
2023-11-18T13:53:48.381Z,101830.59
2023-11-18T13:56:16.444Z,101831.84
2023-11-18T13:58:43.760Z,101814.38
2023-11-18T14:01:13.393Z,101799.47
2023-11-18T14:03:41.451Z,101793.88
2023-11-18T14:06:11.530Z,101801.69
2023-11-18T14:08:38.991Z,101793.34
2023-11-18T14:11:13.338Z,101783.94
2023-11-18T14:13:42.748Z,101783.53
2023-11-18T14:16:11.009Z,101783.22
2023-11-18T14:18:38.316Z,101786.63
2023-11-18T14:21:06.811Z,101782.75
2023-11-18T14:23:33.304Z,101779.97
2023-11-18T14:25:59.720Z,101767.38
2023-11-18T14:28:27.475Z,101756.34
2023-11-18T14:30:53.951Z,101761.16
2023-11-18T14:33:20.405Z,101747.75
2023-11-18T14:35:47.304Z,101748.09
2023-11-18T14:38:14.065Z,101740.06
2023-11-18T14:40:42.633Z,101714.31
2023-11-18T14:43:09.694Z,101716.69
2023-11-18T14:45:36.416Z,101719.09
2023-11-18T14:48:03.710Z,101709.75
2023-11-18T14:50:30.157Z,101706.44
2023-11-18T14:53:00.992Z,101704.88
2023-11-18T14:55:28.268Z,101702.94
2023-11-18T14:57:54.864Z,101711.25
2023-11-18T15:00:23.120Z,101717.09
2023-11-18T15:02:51.210Z,101720.31
2023-11-18T15:05:19.476Z,101710.75
2023-11-18T15:07:50.999Z,101721.03
2023-11-18T15:10:21.359Z,101711.56
2023-11-18T15:12:55.912Z,101699.47
2023-11-18T15:15:33.094Z,101696.97
2023-11-18T15:18:01.140Z,101689.53
2023-11-18T15:20:27.734Z,101687.88
2023-11-18T15:22:55.038Z,101680.66
2023-11-18T15:25:21.391Z,101678.31
2023-11-18T15:27:48.721Z,101669.38
2023-11-18T15:30:15.415Z,101671.53
2023-11-18T15:32:43.178Z,101663.13
2023-11-18T15:35:10.541Z,101661.53
2023-11-18T15:37:42.461Z,101654.38
2023-11-18T15:40:11.671Z,101642.22
2023-11-18T15:42:39.315Z,101634.63
2023-11-18T15:45:09.536Z,101622.59
2023-11-18T15:47:40.067Z,101620.56
2023-11-18T15:50:07.499Z,101610.91
2023-11-18T15:52:37.486Z,101604.25
2023-11-18T15:55:10.810Z,101602.19
2023-11-18T15:57:39.420Z,101595.91
2023-11-18T16:00:07.600Z,101591.31
2023-11-18T16:02:33.980Z,101585.66
2023-11-18T16:05:00.430Z,101581.41
2023-11-18T16:07:26.845Z,101585.94
2023-11-18T16:09:53.198Z,101579.25
2023-11-18T16:12:19.541Z,101576.69
2023-11-18T16:14:48.355Z,101575.59
2023-11-18T16:17:14.939Z,101576.56
2023-11-18T16:19:41.317Z,101585.88
2023-11-18T16:22:07.698Z,101580.84
2023-11-18T16:24:34.049Z,101581.84
2023-11-18T16:27:00.413Z,101574.88
2023-11-18T16:29:26.796Z,101581.53
2023-11-18T16:31:53.320Z,101562.94
2023-11-18T16:34:21.066Z,101548.41
2023-11-18T16:36:49.099Z,101557.63
2023-11-18T16:39:15.435Z,101561.13
2023-11-18T16:41:45.905Z,101566.06
2023-11-18T16:44:12.834Z,101559.78
2023-11-18T16:46:41.005Z,101543.34
2023-11-18T16:49:08.236Z,101549.69
2023-11-18T16:51:35.652Z,101548.38
2023-11-18T16:54:02.073Z,101543.06
2023-11-18T16:56:29.803Z,101550.53
2023-11-18T16:58:56.476Z,101563.13
2023-11-18T17:01:25.545Z,101560.47
2023-11-18T17:03:52.440Z,101552.28
2023-11-18T17:06:21.169Z,101560.63
2023-11-18T17:08:48.627Z,101551.09
2023-11-18T17:11:16.161Z,101538.22
2023-11-18T17:13:42.540Z,101550.47
2023-11-18T17:16:09.132Z,101551.63
2023-11-18T17:18:35.547Z,101545.91
2023-11-18T17:21:01.939Z,101531.16
2023-11-18T17:23:28.342Z,101526.72
2023-11-18T17:25:56.677Z,101516.44
2023-11-18T17:28:23.173Z,101522.50
2023-11-18T17:30:49.615Z,101501.34
2023-11-18T17:33:16.392Z,101507.06
2023-11-18T17:35:44.077Z,101504.94
2023-11-18T17:38:10.530Z,101484.47
2023-11-18T17:40:36.949Z,101489.28
2023-11-18T17:43:05.277Z,101481.78
2023-11-18T17:45:31.804Z,101473.75
2023-11-18T17:47:58.709Z,101481.63
2023-11-18T17:50:25.539Z,101494.91
2023-11-18T17:52:52.368Z,101486.50
2023-11-18T17:55:19.311Z,101479.06
2023-11-18T17:57:52.212Z,101466.19
2023-11-18T18:00:24.220Z,101460.84
2023-11-18T18:02:52.872Z,101454.84
2023-11-18T18:05:22.951Z,101451.16
2023-11-18T18:07:50.117Z,101447.78
2023-11-18T18:10:18.133Z,101455.91
2023-11-18T18:12:47.768Z,101456.09
2023-11-18T18:15:14.806Z,101444.94
2023-11-18T18:17:41.513Z,101437.34
2023-11-18T18:20:11.619Z,101442.25
2023-11-18T18:22:39.029Z,101434.88
2023-11-18T18:25:06.262Z,101431.13
2023-11-18T18:27:35.912Z,101424.91
2023-11-18T18:30:03.394Z,101411.31
2023-11-18T18:32:30.419Z,101413.84
2023-11-18T18:34:57.051Z,101403.53
2023-11-18T18:37:26.490Z,101406.44
2023-11-18T18:39:53.980Z,101413.34
2023-11-18T18:42:21.117Z,101406.00
2023-11-18T18:44:47.527Z,101396.38
2023-11-18T18:47:16.814Z,101389.06
2023-11-18T18:49:44.495Z,101385.31
2023-11-18T18:52:10.870Z,101370.81
2023-11-18T18:54:37.277Z,101356.69
2023-11-18T18:57:06.629Z,101353.28
2023-11-18T18:59:33.163Z,101353.00
2023-11-18T19:01:59.633Z,101341.13
2023-11-18T19:04:26.099Z,101337.00
2023-11-18T19:06:52.975Z,101335.84
2023-11-18T19:09:19.782Z,101338.25
2023-11-18T19:11:46.708Z,101353.91
2023-11-18T19:14:15.215Z,101347.13
2023-11-18T19:16:43.675Z,101334.88
2023-11-18T19:19:18.102Z,101337.75
2023-11-18T19:21:44.527Z,101330.41
2023-11-18T19:24:14.017Z,101339.19
2023-11-18T19:26:40.428Z,101321.91
2023-11-18T19:29:07.200Z,101314.28
2023-11-18T19:31:37.077Z,101301.16
2023-11-18T19:34:03.567Z,101284.72
2023-11-18T19:36:30.145Z,101283.50
2023-11-18T19:38:56.704Z,101282.31
2023-11-18T19:41:23.280Z,101259.16
2023-11-18T19:43:50.075Z,101244.78
2023-11-18T19:46:17.255Z,101232.28
2023-11-18T19:48:43.721Z,101230.22
2023-11-18T19:51:11.769Z,101210.94
2023-11-18T19:53:38.326Z,101211.56
2023-11-18T19:56:05.131Z,101216.06
2023-11-18T19:58:32.854Z,101218.78
2023-11-18T20:01:03.540Z,101215.22
2023-11-18T20:03:29.956Z,101200.66
2023-11-18T20:05:57.422Z,101202.41
2023-11-18T20:08:23.903Z,101185.03
2023-11-18T20:10:50.363Z,101174.56
2023-11-18T20:13:17.483Z,101154.41
2023-11-18T20:15:45.504Z,101161.31
2023-11-18T20:18:12.182Z,101171.88
2023-11-18T20:20:38.729Z,101161.44
2023-11-18T20:23:05.731Z,101162.69
2023-11-18T20:25:32.139Z,101157.09
2023-11-18T20:27:58.557Z,101146.75
2023-11-18T20:30:25.337Z,101147.69
2023-11-18T20:32:52.939Z,101153.97
2023-11-18T20:35:20.157Z,101146.94
2023-11-18T20:37:48.885Z,101140.69
2023-11-18T20:40:22.050Z,101139.28
2023-11-18T20:42:50.749Z,101142.16
2023-11-18T20:45:19.728Z,101136.13
2023-11-18T20:47:47.961Z,101110.75
2023-11-18T20:50:15.827Z,101117.78
2023-11-18T20:52:44.704Z,101111.66
2023-11-18T20:55:11.748Z,101105.91
2023-11-18T20:57:39.557Z,101094.13
2023-11-18T21:00:08.959Z,101081.69
2023-11-18T21:02:38.957Z,101072.41
2023-11-18T21:05:06.714Z,101060.94
2023-11-18T21:07:33.593Z,101055.69
2023-11-18T21:10:00.053Z,101057.91
2023-11-18T21:12:27.093Z,101056.50
2023-11-18T21:14:53.605Z,101046.75
2023-11-18T21:17:25.798Z,101039.19
2023-11-18T21:19:53.834Z,101031.00
2023-11-18T21:22:20.929Z,101033.34
2023-11-18T21:24:47.307Z,101010.53
2023-11-18T21:27:13.666Z,101013.16
2023-11-18T21:29:40.059Z,101014.63
2023-11-18T21:32:06.890Z,101007.91
2023-11-18T21:34:33.364Z,101005.72
2023-11-18T21:36:59.705Z,101007.19
2023-11-18T21:39:27.327Z,101005.63
2023-11-18T21:41:53.910Z,100992.56
2023-11-18T21:44:20.454Z,100968.13
2023-11-18T21:46:47.053Z,100957.03
2023-11-18T21:49:13.433Z,100945.22
2023-11-18T21:51:39.985Z,100932.69
2023-11-18T21:54:06.665Z,100914.09
2023-11-18T21:56:37.745Z,100913.75
2023-11-18T21:59:04.710Z,100898.44
2023-11-18T22:01:31.722Z,100893.56
2023-11-18T22:03:58.414Z,100893.22
2023-11-18T22:06:25.528Z,100877.91
2023-11-18T22:08:52.426Z,100875.06
2023-11-18T22:11:20.268Z,100864.13
2023-11-18T22:13:50.626Z,100860.31
2023-11-18T22:16:17.205Z,100858.78
2023-11-18T22:18:44.830Z,100865.38
2023-11-18T22:21:14.239Z,100868.91
2023-11-18T22:23:40.885Z,100840.88
2023-11-18T22:26:08.295Z,100840.13
2023-11-18T22:28:34.847Z,100851.56
2023-11-18T22:31:01.211Z,100835.03
2023-11-18T22:33:27.791Z,100814.53
2023-11-18T22:35:54.985Z,100818.69
2023-11-18T22:38:25.455Z,100823.22
2023-11-18T22:40:52.230Z,100818.03
2023-11-18T22:43:20.464Z,100816.06
2023-11-18T22:45:49.800Z,100798.63
2023-11-18T22:48:16.209Z,100800.88
2023-11-18T22:50:42.589Z,100805.34
2023-11-18T22:53:10.535Z,100804.69
2023-11-18T22:55:39.691Z,100786.81
2023-11-18T22:58:09.065Z,100773.84
2023-11-18T23:00:39.482Z,100758.22
2023-11-18T23:03:07.878Z,100760.19
2023-11-18T23:05:37.300Z,100760.44
2023-11-18T23:08:10.000Z,100753.38
2023-11-18T23:10:38.335Z,100740.91
2023-11-18T23:13:05.792Z,100743.91
2023-11-18T23:15:33.162Z,100736.44
2023-11-18T23:18:02.066Z,100723.25
2023-11-18T23:20:28.620Z,100715.78
2023-11-18T23:22:55.129Z,100704.75
2023-11-18T23:25:23.909Z,100701.47
2023-11-18T23:30:26.417Z,100692.50
2023-11-18T23:32:53.317Z,100677.31
2023-11-18T23:35:20.534Z,100663.31
2023-11-18T23:37:50.695Z,100678.66
2023-11-18T23:40:17.162Z,100672.81
2023-11-18T23:42:43.730Z,100662.94
2023-11-18T23:45:17.245Z,100653.78
2023-11-18T23:47:44.232Z,100652.41
2023-11-18T23:50:14.892Z,100653.03
2023-11-18T23:52:41.329Z,100644.66
2023-11-18T23:55:14.751Z,100646.59
2023-11-18T23:57:41.856Z,100633.81
